Time;durP1;ratioP1;P1;durP2;ratioP2;P2;SDS_P1;SDS_P2;PMS_P1;PMS_P2;Temp;Humidity;BMP_temperature;BMP_pressure;BME280_temperature;BME280_humidity;BME280_pressure;Samples;Min_cycle;Max_cycle;Signal;HPM_P1;HPM_P2
2022/03/12 00:00:30;;;;;;;11.33;5.13;;;;;;;;;;5038866;28;20056;-61
2022/03/12 00:02:57;;;;;;;9.57;5.47;;;;;;;;;;5035972;28;20072;-61
2022/03/12 00:05:27;;;;;;;12.67;5.83;;;;;;;;;;5038746;28;20588;-62
2022/03/12 00:07:53;;;;;;;7.93;4.87;;;;;;;;;;5037194;28;20047;-61
2022/03/12 00:10:22;;;;;;;8.70;5.77;;;;;;;;;;5040924;28;20033;-62
2022/03/12 00:12:48;;;;;;;14.27;5.57;;;;;;;;;;5044448;28;20041;-61
2022/03/12 00:15:15;;;;;;;10.27;5.43;;;;;;;;;;5039902;28;20051;-61
2022/03/12 00:17:45;;;;;;;12.00;6.20;;;;;;;;;;5044110;28;20040;-61
2022/03/12 00:20:16;;;;;;;9.03;5.47;;;;;;;;;;5039536;28;20033;-61
2022/03/12 00:22:45;;;;;;;11.77;5.33;;;;;;;;;;5040323;28;20041;-61
2022/03/12 00:25:13;;;;;;;13.00;4.47;;;;;;;;;;5038653;28;20445;-61
2022/03/12 00:27:41;;;;;;;11.07;5.20;;;;;;;;;;5039280;28;20056;-62
2022/03/12 00:30:07;;;;;;;12.53;6.03;;;;;;;;;;5044300;28;20051;-61
2022/03/12 00:32:35;;;;;;;10.50;4.93;;;;;;;;;;5037864;28;20045;-62
2022/03/12 00:35:02;;;;;;;9.00;4.80;;;;;;;;;;5040503;28;20144;-61
2022/03/12 00:37:28;;;;;;;11.70;5.70;;;;;;;;;;5039615;28;20045;-61
2022/03/12 00:39:55;;;;;;;9.93;4.97;;;;;;;;;;5043645;28;20546;-61
2022/03/12 00:42:21;;;;;;;11.60;5.37;;;;;;;;;;5039712;28;20037;-62
2022/03/12 00:44:47;;;;;;;8.50;5.83;;;;;;;;;;5043187;28;20044;-61
2022/03/12 00:47:13;;;;;;;8.20;4.93;;;;;;;;;;5040676;28;20052;-61
2022/03/12 00:49:39;;;;;;;7.67;5.50;;;;;;;;;;5039952;28;20033;-61
2022/03/12 00:52:05;;;;;;;11.73;6.00;;;;;;;;;;5036622;28;20140;-61
2022/03/12 00:54:31;;;;;;;9.23;5.70;;;;;;;;;;5036310;28;20041;-61
2022/03/12 00:56:57;;;;;;;11.07;5.37;;;;;;;;;;5043732;28;20041;-61
2022/03/12 00:59:24;;;;;;;11.00;5.63;;;;;;;;;;5042982;28;20107;-61
2022/03/12 01:01:50;;;;;;;8.47;5.10;;;;;;;;;;5037832;28;20098;-62
2022/03/12 01:04:16;;;;;;;7.87;5.00;;;;;;;;;;5035455;28;20050;-61
2022/03/12 01:06:42;;;;;;;7.43;5.00;;;;;;;;;;5043242;28;20041;-61
2022/03/12 01:09:10;;;;;;;9.17;5.17;;;;;;;;;;5035784;28;20663;-61
2022/03/12 01:11:38;;;;;;;10.40;5.13;;;;;;;;;;5042314;28;20041;-61
2022/03/12 01:14:06;;;;;;;11.63;5.23;;;;;;;;;;5041869;28;20136;-61
2022/03/12 01:16:32;;;;;;;11.70;5.57;;;;;;;;;;5042470;28;20167;-62
2022/03/12 01:18:58;;;;;;;10.20;6.70;;;;;;;;;;5045764;28;20045;-62
2022/03/12 01:21:24;;;;;;;10.97;5.67;;;;;;;;;;5042394;28;20079;-61
2022/03/12 01:23:51;;;;;;;8.90;6.00;;;;;;;;;;5044616;28;20519;-61
2022/03/12 01:26:18;;;;;;;8.70;5.30;;;;;;;;;;5049153;28;20063;-62
2022/03/12 01:28:45;;;;;;;9.73;5.90;;;;;;;;;;5050969;28;20819;-61
2022/03/12 01:31:11;;;;;;;7.30;5.13;;;;;;;;;;5050444;28;20060;-61
2022/03/12 01:33:38;;;;;;;12.70;5.07;;;;;;;;;;5051544;28;20053;-61
2022/03/12 01:36:04;;;;;;;9.67;5.30;;;;;;;;;;5050925;28;20037;-61
2022/03/12 01:38:35;;;;;;;10.07;5.27;;;;;;;;;;5050809;28;20048;-61
2022/03/12 01:41:04;;;;;;;11.17;5.13;;;;;;;;;;5051014;28;20053;-61
2022/03/12 01:43:36;;;;;;;9.33;5.53;;;;;;;;;;5051321;28;20049;-61
2022/03/12 01:46:03;;;;;;;10.50;5.73;;;;;;;;;;5050399;28;20425;-61
2022/03/12 01:48:33;;;;;;;14.13;5.93;;;;;;;;;;5051212;28;20045;-61
2022/03/12 01:50:59;;;;;;;9.17;5.40;;;;;;;;;;5050199;28;20041;-62
2022/03/12 01:53:29;;;;;;;11.33;5.50;;;;;;;;;;5051021;28;20041;-61
2022/03/12 01:55:56;;;;;;;11.30;6.13;;;;;;;;;;5050213;28;20388;-62
2022/03/12 01:58:24;;;;;;;9.87;5.43;;;;;;;;;;5050858;28;20088;-61
2022/03/12 02:00:51;;;;;;;9.40;5.77;;;;;;;;;;5036753;28;20716;-62
2022/03/12 02:03:26;;;;;;;8.73;5.13;;;;;;;;;;5050893;28;20590;-62
2022/03/12 02:05:53;;;;;;;12.43;5.70;;;;;;;;;;5052579;28;20132;-62
2022/03/12 02:08:19;;;;;;;10.90;5.50;;;;;;;;;;5048273;28;20414;-62
2022/03/12 02:10:45;;;;;;;8.87;5.73;;;;;;;;;;5049795;28;20048;-61
2022/03/12 02:13:11;;;;;;;7.43;5.37;;;;;;;;;;5048861;28;20091;-61
2022/03/12 02:15:38;;;;;;;11.70;5.80;;;;;;;;;;5049935;28;20075;-61
2022/03/12 02:18:04;;;;;;;13.47;5.80;;;;;;;;;;5050682;28;20135;-61
2022/03/12 02:20:30;;;;;;;9.27;5.33;;;;;;;;;;5044507;28;20045;-62
2022/03/12 02:22:59;;;;;;;9.87;5.70;;;;;;;;;;5050861;28;20049;-61
2022/03/12 02:25:30;;;;;;;10.20;5.80;;;;;;;;;;5049622;28;20525;-61
2022/03/12 02:27:57;;;;;;;11.03;5.87;;;;;;;;;;5049969;28;20040;-61
2022/03/12 02:30:27;;;;;;;12.83;6.03;;;;;;;;;;5049161;28;20132;-61
2022/03/12 02:33:00;;;;;;;9.33;5.57;;;;;;;;;;5046412;28;20495;-61
2022/03/12 02:35:28;;;;;;;11.93;5.70;;;;;;;;;;5048852;28;20436;-61
2022/03/12 02:37:54;;;;;;;13.90;5.90;;;;;;;;;;5042951;28;20131;-61
2022/03/12 02:40:20;;;;;;;7.67;5.60;;;;;;;;;;5038951;28;20122;-61
2022/03/12 02:42:50;;;;;;;11.07;5.77;;;;;;;;;;5040895;28;20577;-62
2022/03/12 02:45:16;;;;;;;11.83;6.37;;;;;;;;;;5041368;28;20041;-61
2022/03/12 02:47:43;;;;;;;10.17;5.37;;;;;;;;;;5042425;28;20037;-61
2022/03/12 02:50:11;;;;;;;14.30;5.63;;;;;;;;;;5048637;28;20549;-61
2022/03/12 02:52:39;;;;;;;11.37;6.10;;;;;;;;;;5049836;28;20045;-61
2022/03/12 02:55:06;;;;;;;16.47;6.47;;;;;;;;;;5049910;28;20037;-61
2022/03/12 02:57:32;;;;;;;11.77;5.77;;;;;;;;;;5050331;28;20037;-61
2022/03/12 03:00:07;;;;;;;11.03;6.37;;;;;;;;;;5046790;28;20037;-61
2022/03/12 03:02:40;;;;;;;14.60;5.93;;;;;;;;;;5048582;28;20555;-61
2022/03/12 03:05:23;;;;;;;15.60;6.25;;;;;;;;;;5047903;28;20044;-61
2022/03/12 03:07:53;;;;;;;10.80;6.47;;;;;;;;;;5049593;28;20057;-61
2022/03/12 03:10:31;;;;;;;9.57;5.87;;;;;;;;;;5048486;28;20047;-61
2022/03/12 03:12:58;;;;;;;12.13;6.27;;;;;;;;;;5049744;28;20454;-62
2022/03/12 03:15:25;;;;;;;9.23;5.77;;;;;;;;;;5048736;28;20492;-61
2022/03/12 03:17:51;;;;;;;14.70;6.13;;;;;;;;;;5048238;28;20052;-61
2022/03/12 03:20:18;;;;;;;10.83;6.50;;;;;;;;;;5048653;28;20037;-61
2022/03/12 03:22:44;;;;;;;10.43;6.10;;;;;;;;;;5050519;28;20045;-61
2022/03/12 03:25:10;;;;;;;13.57;5.87;;;;;;;;;;5049805;28;20090;-61
2022/03/12 03:27:36;;;;;;;13.10;6.57;;;;;;;;;;5049012;28;20048;-61
2022/03/12 03:30:02;;;;;;;10.97;6.00;;;;;;;;;;5047557;28;20507;-61
2022/03/12 03:32:28;;;;;;;11.73;5.70;;;;;;;;;;5048583;28;20060;-61
2022/03/12 03:34:54;;;;;;;11.23;6.17;;;;;;;;;;5045999;28;20083;-61
2022/03/12 03:37:21;;;;;;;13.13;5.70;;;;;;;;;;5049464;28;20671;-61
2022/03/12 03:39:47;;;;;;;9.97;5.33;;;;;;;;;;5047850;28;20552;-61
2022/03/12 03:42:18;;;;;;;11.60;5.73;;;;;;;;;;5049011;28;20052;-61
2022/03/12 03:44:44;;;;;;;13.00;6.20;;;;;;;;;;5048558;28;20041;-61
2022/03/12 03:47:10;;;;;;;9.47;6.27;;;;;;;;;;5046639;28;20049;-61
2022/03/12 03:49:37;;;;;;;9.07;5.83;;;;;;;;;;5048543;28;20111;-61
2022/03/12 03:52:03;;;;;;;11.23;6.23;;;;;;;;;;5048827;28;20053;-61
2022/03/12 03:54:31;;;;;;;9.40;6.23;;;;;;;;;;5047143;28;20048;-61
2022/03/12 03:56:57;;;;;;;13.77;6.17;;;;;;;;;;5048938;28;20131;-61
2022/03/12 03:59:23;;;;;;;11.37;6.27;;;;;;;;;;5047230;28;20048;-61
2022/03/12 04:01:50;;;;;;;10.27;6.57;;;;;;;;;;5044987;28;20037;-61
2022/03/12 04:04:17;;;;;;;13.63;6.77;;;;;;;;;;5048615;28;20044;-62
2022/03/12 04:06:43;;;;;;;12.03;5.57;;;;;;;;;;5047930;28;20549;-61
2022/03/12 04:09:09;;;;;;;10.67;6.30;;;;;;;;;;5046729;28;20085;-61
2022/03/12 04:11:35;;;;;;;9.00;5.80;;;;;;;;;;5047646;28;20052;-62
2022/03/12 04:14:02;;;;;;;8.47;6.30;;;;;;;;;;5048751;28;20056;-61
2022/03/12 04:16:31;;;;;;;12.27;6.60;;;;;;;;;;5047955;28;20049;-62
2022/03/12 04:18:57;;;;;;;11.80;6.20;;;;;;;;;;5047372;28;20083;-62
2022/03/12 04:21:23;;;;;;;12.50;6.67;;;;;;;;;;5048447;28;20095;-61
2022/03/12 04:23:50;;;;;;;11.30;6.30;;;;;;;;;;5045307;28;20415;-61
2022/03/12 04:26:16;;;;;;;9.63;6.10;;;;;;;;;;5047676;28;20049;-61
2022/03/12 04:28:42;;;;;;;12.90;6.50;;;;;;;;;;5048555;28;20543;-61
2022/03/12 04:31:09;;;;;;;12.43;6.37;;;;;;;;;;5044922;28;20119;-62
2022/03/12 04:33:35;;;;;;;9.97;5.57;;;;;;;;;;5035741;28;20120;-61
2022/03/12 04:36:03;;;;;;;11.37;5.87;;;;;;;;;;5037791;28;20041;-61
2022/03/12 04:38:29;;;;;;;11.73;6.50;;;;;;;;;;5036943;28;20052;-61
2022/03/12 04:40:56;;;;;;;9.80;6.13;;;;;;;;;;5039818;28;20056;-61
2022/03/12 04:43:25;;;;;;;13.70;7.00;;;;;;;;;;5046668;28;20045;-61
2022/03/12 04:45:52;;;;;;;13.30;6.40;;;;;;;;;;5039975;28;20088;-61
2022/03/12 04:48:20;;;;;;;11.47;6.57;;;;;;;;;;5035426;28;20044;-62
2022/03/12 04:50:47;;;;;;;12.27;5.53;;;;;;;;;;5039168;28;20111;-61
2022/03/12 04:53:13;;;;;;;14.80;6.23;;;;;;;;;;5048358;28;20430;-61
2022/03/12 04:55:39;;;;;;;13.43;6.07;;;;;;;;;;5051774;28;20085;-62
2022/03/12 04:58:07;;;;;;;15.17;6.90;;;;;;;;;;5052539;28;20045;-62
2022/03/12 05:00:38;;;;;;;15.90;6.43;;;;;;;;;;5050119;28;20075;-61
2022/03/12 05:03:04;;;;;;;12.23;6.43;;;;;;;;;;5052105;28;20045;-61
2022/03/12 05:05:30;;;;;;;11.13;6.50;;;;;;;;;;5051920;28;20045;-61
2022/03/12 05:07:59;;;;;;;10.93;6.07;;;;;;;;;;5051998;28;20051;-62
2022/03/12 05:10:27;;;;;;;10.73;6.23;;;;;;;;;;5048538;28;20041;-61
2022/03/12 05:12:58;;;;;;;11.53;6.80;;;;;;;;;;5052119;28;20133;-61
2022/03/12 05:15:24;;;;;;;14.00;7.07;;;;;;;;;;5051412;28;20059;-62
2022/03/12 05:17:51;;;;;;;11.97;7.23;;;;;;;;;;5047954;28;20041;-61
2022/03/12 05:20:22;;;;;;;14.50;7.27;;;;;;;;;;5048703;28;20101;-62
2022/03/12 05:22:48;;;;;;;14.47;6.43;;;;;;;;;;5051707;28;20107;-61
2022/03/12 05:25:18;;;;;;;14.37;7.10;;;;;;;;;;5051754;28;20053;-61
2022/03/12 05:27:45;;;;;;;11.57;7.23;;;;;;;;;;5050749;28;20049;-62
2022/03/12 05:30:11;;;;;;;14.57;6.83;;;;;;;;;;5050330;28;20041;-61
2022/03/12 05:32:37;;;;;;;13.03;6.97;;;;;;;;;;5043414;28;20061;-61
2022/03/12 05:35:04;;;;;;;13.67;7.60;;;;;;;;;;5031558;28;20502;-61
2022/03/12 05:37:30;;;;;;;9.77;6.20;;;;;;;;;;5043971;28;20045;-61
2022/03/12 05:39:56;;;;;;;9.60;6.50;;;;;;;;;;5051536;28;20391;-61
2022/03/12 05:42:22;;;;;;;13.60;7.13;;;;;;;;;;5049758;28;20049;-61
2022/03/12 05:44:54;;;;;;;8.83;5.90;;;;;;;;;;5051471;28;20045;-62
2022/03/12 05:47:23;;;;;;;15.90;7.40;;;;;;;;;;5050593;28;20512;-62
2022/03/12 05:49:49;;;;;;;12.57;6.53;;;;;;;;;;5050745;28;20079;-61
2022/03/12 05:52:17;;;;;;;10.77;6.70;;;;;;;;;;5050861;28;20045;-61
2022/03/12 05:54:48;;;;;;;11.67;6.70;;;;;;;;;;5049167;28;20112;-61
2022/03/12 05:57:14;;;;;;;13.87;6.97;;;;;;;;;;5051358;28;20051;-61
2022/03/12 05:59:40;;;;;;;11.43;7.30;;;;;;;;;;5054582;28;20051;-61
2022/03/12 06:02:06;;;;;;;9.63;5.90;;;;;;;;;;5051233;28;20045;-61
2022/03/12 06:04:35;;;;;;;10.83;6.63;;;;;;;;;;5051211;28;20554;-61
2022/03/12 06:07:01;;;;;;;13.23;6.40;;;;;;;;;;5061661;28;20049;-61
2022/03/12 06:09:27;;;;;;;9.30;6.63;;;;;;;;;;5050624;28;20051;-61
2022/03/12 06:11:54;;;;;;;13.70;7.00;;;;;;;;;;5050865;28;20045;-61
2022/03/12 06:14:21;;;;;;;10.43;6.77;;;;;;;;;;5050892;28;20052;-61
2022/03/12 06:16:48;;;;;;;11.97;6.93;;;;;;;;;;5050502;28;20052;-61
2022/03/12 06:19:19;;;;;;;11.83;6.40;;;;;;;;;;5050335;28;20095;-61
2022/03/12 06:21:46;;;;;;;17.60;7.27;;;;;;;;;;5047417;28;20049;-61
2022/03/12 06:24:12;;;;;;;12.93;7.20;;;;;;;;;;5050124;28;20128;-61
2022/03/12 06:26:39;;;;;;;13.73;6.37;;;;;;;;;;5049961;28;20168;-61
2022/03/12 06:29:09;;;;;;;9.60;6.57;;;;;;;;;;5047662;28;20107;-61
2022/03/12 06:31:35;;;;;;;14.70;6.83;;;;;;;;;;5043574;28;20454;-61
2022/03/12 06:34:01;;;;;;;15.00;6.90;;;;;;;;;;5044894;28;20154;-61
2022/03/12 06:36:28;;;;;;;13.03;7.30;;;;;;;;;;5045545;28;20056;-61
2022/03/12 06:38:54;;;;;;;14.87;7.13;;;;;;;;;;5049171;28;20049;-61
2022/03/12 06:41:20;;;;;;;13.17;7.03;;;;;;;;;;5041548;28;20036;-62
2022/03/12 06:43:47;;;;;;;14.60;7.10;;;;;;;;;;5044489;28;20422;-61
2022/03/12 06:46:14;;;;;;;13.70;7.57;;;;;;;;;;5040117;28;20041;-62
2022/03/12 06:48:41;;;;;;;12.03;7.20;;;;;;;;;;5040757;28;21376;-62
2022/03/12 06:51:07;;;;;;;11.77;7.10;;;;;;;;;;5042718;28;20038;-61
2022/03/12 06:53:33;;;;;;;12.17;6.97;;;;;;;;;;5043487;28;20047;-61
2022/03/12 06:55:59;;;;;;;13.37;6.50;;;;;;;;;;5037078;28;20128;-61
2022/03/12 06:58:26;;;;;;;13.73;7.57;;;;;;;;;;5049476;28;20835;-61
2022/03/12 07:00:52;;;;;;;11.83;7.10;;;;;;;;;;5041214;28;20491;-61
2022/03/12 07:03:18;;;;;;;14.13;7.00;;;;;;;;;;5049512;28;20052;-61
2022/03/12 07:05:44;;;;;;;13.60;7.17;;;;;;;;;;5049894;28;20044;-61
2022/03/12 07:08:10;;;;;;;14.27;7.77;;;;;;;;;;5038969;28;20475;-61
2022/03/12 07:10:36;;;;;;;14.90;7.43;;;;;;;;;;5037878;28;20048;-62
2022/03/12 07:13:02;;;;;;;12.77;7.57;;;;;;;;;;5038720;28;20068;-62
2022/03/12 07:15:29;;;;;;;12.03;7.47;;;;;;;;;;5029560;28;20602;-62
2022/03/12 07:17:55;;;;;;;11.63;7.43;;;;;;;;;;5029867;28;20049;-61
2022/03/12 07:20:22;;;;;;;16.30;8.80;;;;;;;;;;5047719;28;20041;-62
2022/03/12 07:22:48;;;;;;;14.53;8.23;;;;;;;;;;5048878;28;20059;-62
2022/03/12 07:25:15;;;;;;;12.33;7.70;;;;;;;;;;5047543;28;20049;-61
2022/03/12 07:27:42;;;;;;;12.90;7.43;;;;;;;;;;5048648;28;20578;-62
2022/03/12 07:30:09;;;;;;;16.53;7.97;;;;;;;;;;5029586;28;20045;-61
2022/03/12 07:32:36;;;;;;;11.23;7.57;;;;;;;;;;5059390;28;20402;-61
2022/03/12 07:35:02;;;;;;;12.47;7.27;;;;;;;;;;5049701;28;20211;-61
2022/03/12 07:37:28;;;;;;;11.57;7.50;;;;;;;;;;5069437;28;20601;-61
2022/03/12 07:39:55;;;;;;;12.73;7.97;;;;;;;;;;5061374;28;20041;-61
2022/03/12 07:42:22;;;;;;;13.87;8.17;;;;;;;;;;5049036;28;20057;-61
2022/03/12 07:44:48;;;;;;;15.30;8.97;;;;;;;;;;5049275;28;20049;-61
2022/03/12 07:47:14;;;;;;;15.20;8.10;;;;;;;;;;5048785;28;20450;-61
2022/03/12 07:49:41;;;;;;;12.33;7.93;;;;;;;;;;5048319;28;20131;-61
2022/03/12 07:52:07;;;;;;;11.20;6.93;;;;;;;;;;5048634;28;20537;-62
2022/03/12 07:54:34;;;;;;;11.27;7.67;;;;;;;;;;5048760;28;20057;-61
2022/03/12 07:57:01;;;;;;;12.27;7.73;;;;;;;;;;5048551;28;20130;-61
2022/03/12 07:59:27;;;;;;;15.00;8.77;;;;;;;;;;5043620;28;20095;-61
2022/03/12 08:01:54;;;;;;;11.43;7.40;;;;;;;;;;5047016;28;20063;-62
2022/03/12 08:04:20;;;;;;;16.77;7.93;;;;;;;;;;5060442;28;20068;-62
2022/03/12 08:06:47;;;;;;;13.13;8.20;;;;;;;;;;5050573;28;20098;-62
2022/03/12 08:09:13;;;;;;;15.77;8.70;;;;;;;;;;5059805;28;20044;-62
2022/03/12 08:11:39;;;;;;;13.53;8.17;;;;;;;;;;5049029;28;20135;-61
2022/03/12 08:14:14;;;;;;;13.70;7.67;;;;;;;;;;5048915;28;20049;-62
2022/03/12 08:16:41;;;;;;;17.90;8.80;;;;;;;;;;5048763;28;20045;-61
2022/03/12 08:19:07;;;;;;;17.37;8.40;;;;;;;;;;5047610;28;20124;-62
2022/03/12 08:21:34;;;;;;;17.80;8.23;;;;;;;;;;5047986;28;20041;-62
2022/03/12 08:24:02;;;;;;;13.77;8.30;;;;;;;;;;5048251;28;20044;-62
2022/03/12 08:26:28;;;;;;;13.57;8.40;;;;;;;;;;5047717;28;20527;-61
2022/03/12 08:28:54;;;;;;;12.90;8.23;;;;;;;;;;5049353;28;20072;-61
2022/03/12 08:31:21;;;;;;;18.37;8.50;;;;;;;;;;5051081;28;20055;-61
2022/03/12 08:33:47;;;;;;;13.13;8.63;;;;;;;;;;5052212;28;20048;-61
2022/03/12 08:36:14;;;;;;;15.17;8.80;;;;;;;;;;5052227;28;20045;-62
2022/03/12 08:38:40;;;;;;;16.23;8.67;;;;;;;;;;5051202;28;20048;-62
2022/03/12 08:41:07;;;;;;;13.93;8.07;;;;;;;;;;5051916;28;20582;-62
2022/03/12 08:43:34;;;;;;;13.83;8.77;;;;;;;;;;5052288;28;20072;-61
2022/03/12 08:46:01;;;;;;;17.03;9.37;;;;;;;;;;5051868;28;20154;-61
2022/03/12 08:48:27;;;;;;;16.53;10.40;;;;;;;;;;5052179;28;20669;-62
2022/03/12 08:50:53;;;;;;;14.23;7.73;;;;;;;;;;5052073;28;20037;-62
2022/03/12 08:53:21;;;;;;;13.33;8.43;;;;;;;;;;5051481;28;20044;-62
2022/03/12 08:55:47;;;;;;;14.50;8.23;;;;;;;;;;5052348;28;20110;-62
2022/03/12 08:58:13;;;;;;;12.93;8.70;;;;;;;;;;5051755;28;20119;-62
2022/03/12 09:00:39;;;;;;;12.33;8.80;;;;;;;;;;5051648;28;20037;-62
2022/03/12 09:03:06;;;;;;;12.90;8.87;;;;;;;;;;5051389;28;20056;-62
2022/03/12 09:05:32;;;;;;;12.33;8.73;;;;;;;;;;5051830;28;20079;-62
2022/03/12 09:07:58;;;;;;;20.97;9.07;;;;;;;;;;5052055;28;20049;-62
2022/03/12 09:10:25;;;;;;;16.83;8.73;;;;;;;;;;5051731;28;20131;-62
2022/03/12 09:12:51;;;;;;;12.73;8.37;;;;;;;;;;5051729;28;20053;-62
2022/03/12 09:15:20;;;;;;;15.37;8.50;;;;;;;;;;5051130;28;20514;-61
2022/03/12 09:17:46;;;;;;;14.37;8.03;;;;;;;;;;5051655;28;20543;-61
2022/03/12 09:20:13;;;;;;;13.90;8.40;;;;;;;;;;5051455;28;20119;-62
2022/03/12 09:22:39;;;;;;;12.40;8.40;;;;;;;;;;5051681;28;20107;-62
2022/03/12 09:25:12;;;;;;;12.93;8.60;;;;;;;;;;5051354;28;20053;-62
2022/03/12 09:27:38;;;;;;;16.30;9.37;;;;;;;;;;5067056;28;20053;-62
2022/03/12 09:30:05;;;;;;;17.43;8.37;;;;;;;;;;5051247;28;20084;-62
2022/03/12 09:32:31;;;;;;;25.50;8.43;;;;;;;;;;5051306;28;20140;-62
2022/03/12 09:34:57;;;;;;;11.50;7.63;;;;;;;;;;5051454;28;20080;-62
2022/03/12 09:37:23;;;;;;;11.10;7.13;;;;;;;;;;5050672;28;20132;-62
2022/03/12 09:39:50;;;;;;;13.00;7.97;;;;;;;;;;5050759;28;20041;-62
2022/03/12 09:42:16;;;;;;;12.97;7.53;;;;;;;;;;5050988;28;20071;-62
2022/03/12 09:44:42;;;;;;;12.93;7.40;;;;;;;;;;5050954;28;20123;-62
2022/03/12 09:47:08;;;;;;;10.17;7.13;;;;;;;;;;5050894;28;20864;-62
2022/03/12 09:49:36;;;;;;;10.23;6.87;;;;;;;;;;5049566;28;20131;-62
2022/03/12 09:52:03;;;;;;;10.33;6.73;;;;;;;;;;5050556;28;20053;-62
2022/03/12 09:54:30;;;;;;;8.43;6.40;;;;;;;;;;5050994;28;20048;-62
2022/03/12 09:56:56;;;;;;;8.63;6.50;;;;;;;;;;5050941;28;20414;-62
2022/03/12 09:59:22;;;;;;;9.63;7.33;;;;;;;;;;5050257;28;20510;-62
2022/03/12 10:01:49;;;;;;;9.83;6.70;;;;;;;;;;5051071;28;20128;-62
2022/03/12 10:04:15;;;;;;;13.50;7.10;;;;;;;;;;5050530;28;20052;-62
2022/03/12 10:06:44;;;;;;;9.37;6.33;;;;;;;;;;5050610;28;20079;-62
2022/03/12 10:09:10;;;;;;;10.27;6.87;;;;;;;;;;5050728;28;20120;-62
2022/03/12 10:11:36;;;;;;;12.00;7.07;;;;;;;;;;5050523;28;20732;-62
2022/03/12 10:14:02;;;;;;;9.60;6.43;;;;;;;;;;5050327;28;20049;-62
2022/03/12 10:16:29;;;;;;;8.47;6.37;;;;;;;;;;5050148;28;20087;-62
2022/03/12 10:18:56;;;;;;;10.50;6.23;;;;;;;;;;5050640;28;20048;-62
2022/03/12 10:21:23;;;;;;;11.07;6.50;;;;;;;;;;5050345;28;20053;-62
2022/03/12 10:23:49;;;;;;;10.07;6.47;;;;;;;;;;5050662;28;20106;-62
2022/03/12 10:26:15;;;;;;;13.57;6.67;;;;;;;;;;5050085;28;20453;-62
2022/03/12 10:28:41;;;;;;;11.57;7.27;;;;;;;;;;5050201;28;20360;-62
2022/03/12 10:31:09;;;;;;;10.63;6.20;;;;;;;;;;5050235;28;20114;-62
2022/03/12 10:33:36;;;;;;;9.73;5.77;;;;;;;;;;5050382;28;20060;-62
2022/03/12 10:36:12;;;;;;;11.23;6.87;;;;;;;;;;5050205;28;20272;-62
2022/03/12 10:38:39;;;;;;;10.20;6.83;;;;;;;;;;5050228;28;20127;-62
2022/03/12 10:41:06;;;;;;;10.43;6.60;;;;;;;;;;5049661;28;20040;-62
2022/03/12 10:43:43;;;;;;;10.07;6.70;;;;;;;;;;5049835;28;20049;-62
2022/03/12 10:46:09;;;;;;;10.73;6.83;;;;;;;;;;5049549;28;20060;-62
2022/03/12 10:48:38;;;;;;;12.33;6.80;;;;;;;;;;5049832;28;20049;-62
2022/03/12 10:51:04;;;;;;;9.00;6.30;;;;;;;;;;5049032;28;20052;-62
2022/03/12 10:53:31;;;;;;;7.80;6.67;;;;;;;;;;5049718;28;20051;-62
2022/03/12 10:55:58;;;;;;;12.37;7.67;;;;;;;;;;5049239;28;20086;-62
2022/03/12 10:58:27;;;;;;;9.67;6.20;;;;;;;;;;5049393;28;20064;-62
2022/03/12 11:00:55;;;;;;;13.17;6.43;;;;;;;;;;5049629;28;20036;-62
2022/03/12 11:03:29;;;;;;;8.50;6.10;;;;;;;;;;5049806;28;20399;-63
2022/03/12 11:05:56;;;;;;;11.20;6.87;;;;;;;;;;5049039;28;20390;-62
2022/03/12 11:08:23;;;;;;;8.07;6.20;;;;;;;;;;5049430;28;20454;-62
2022/03/12 11:11:11;;;;;;;11.97;6.03;;;;;;;;;;5049468;28;20368;-62
2022/03/12 11:13:43;;;;;;;10.07;6.63;;;;;;;;;;5049305;28;20087;-62
2022/03/12 11:16:24;;;;;;;9.47;6.40;;;;;;;;;;5049444;28;20487;-62
2022/03/12 11:18:53;;;;;;;8.87;6.20;;;;;;;;;;5049526;28;20053;-62
2022/03/12 11:21:39;;;;;;;7.67;5.40;;;;;;;;;;5049324;28;20139;-62
2022/03/12 11:24:14;;;;;;;9.93;6.43;;;;;;;;;;5049422;28;20183;-62
2022/03/12 11:26:45;;;;;;;9.33;5.80;;;;;;;;;;5047576;28;20048;-62
2022/03/12 11:29:11;;;;;;;13.50;5.93;;;;;;;;;;5048930;28;20049;-62
2022/03/12 11:31:46;;;;;;;7.67;5.93;;;;;;;;;;5048750;28;20106;-62
2022/03/12 11:34:20;;;;;;;9.20;5.17;;;;;;;;;;5048897;28;20275;-62
2022/03/12 11:36:47;;;;;;;8.53;5.70;;;;;;;;;;5049179;28;20384;-62
2022/03/12 11:39:16;;;;;;;7.47;5.17;;;;;;;;;;5048654;28;20041;-62
2022/03/12 11:41:43;;;;;;;10.13;6.33;;;;;;;;;;5048676;28;20053;-62
2022/03/12 11:44:09;;;;;;;8.27;6.10;;;;;;;;;;5048760;28;20499;-62
2022/03/12 11:46:35;;;;;;;10.13;5.97;;;;;;;;;;5048966;28;20777;-62
2022/03/12 11:49:01;;;;;;;10.97;5.83;;;;;;;;;;5049110;28;20465;-62
2022/03/12 11:51:27;;;;;;;9.00;6.37;;;;;;;;;;5048512;28;20044;-62
2022/03/12 11:53:54;;;;;;;8.03;5.80;;;;;;;;;;5048613;28;20079;-62
2022/03/12 11:56:24;;;;;;;6.90;5.00;;;;;;;;;;5048329;28;20045;-62
2022/03/12 11:58:50;;;;;;;7.97;5.77;;;;;;;;;;5048776;28;20053;-62
2022/03/12 12:01:22;;;;;;;9.47;5.20;;;;;;;;;;5048560;28;20131;-62
2022/03/12 12:03:49;;;;;;;8.52;4.75;;;;;;;;;;5048168;28;20099;-62
2022/03/12 12:06:15;;;;;;;8.80;5.17;;;;;;;;;;5048683;28;20041;-62
2022/03/12 12:08:43;;;;;;;7.70;5.07;;;;;;;;;;5048421;28;20048;-62
2022/03/12 12:11:10;;;;;;;7.43;5.30;;;;;;;;;;5048157;28;20053;-62
2022/03/12 12:13:36;;;;;;;9.50;5.40;;;;;;;;;;5048648;28;20098;-62
2022/03/12 12:16:04;;;;;;;9.03;5.20;;;;;;;;;;5048136;28;20050;-62
2022/03/12 12:18:30;;;;;;;9.07;5.20;;;;;;;;;;5048583;28;20049;-63
2022/03/12 12:20:56;;;;;;;7.10;5.63;;;;;;;;;;5048476;28;20037;-62
2022/03/12 12:23:22;;;;;;;8.10;5.80;;;;;;;;;;5047869;28;20052;-62
2022/03/12 12:25:48;;;;;;;10.73;6.13;;;;;;;;;;5048234;28;20037;-62
2022/03/12 12:28:19;;;;;;;6.60;4.47;;;;;;;;;;5047073;28;20056;-62
2022/03/12 12:30:46;;;;;;;7.37;4.30;;;;;;;;;;5048231;28;20041;-62
2022/03/12 12:33:19;;;;;;;5.77;4.50;;;;;;;;;;5047709;28;20795;-62
2022/03/12 12:35:45;;;;;;;;;;;;;;;;;;5048713;28;20048;-62
2022/03/12 12:38:12;;;;;;;12.10;8.13;;;;;;;;;;5047862;28;20310;-62
2022/03/12 12:40:47;;;;;;;12.50;8.00;;;;;;;;;;5048463;28;20052;-62
2022/03/12 12:43:14;;;;;;;12.47;8.10;;;;;;;;;;5047702;28;20053;-62
2022/03/12 12:45:53;;;;;;;10.00;6.73;;;;;;;;;;5048187;28;20518;-62
2022/03/12 12:48:26;;;;;;;10.83;6.57;;;;;;;;;;5047834;28;20507;-62
2022/03/12 12:50:59;;;;;;;8.93;6.37;;;;;;;;;;5047711;28;20056;-62
2022/03/12 12:53:29;;;;;;;10.47;5.97;;;;;;;;;;5047624;28;20041;-62
2022/03/12 12:56:17;;;;;;;14.17;8.13;;;;;;;;;;5047920;28;20335;-62
2022/03/12 12:58:53;;;;;;;12.40;7.17;;;;;;;;;;5047955;28;20099;-63
2022/03/12 13:01:20;;;;;;;8.40;5.87;;;;;;;;;;5047736;28;20077;-62
2022/03/12 13:03:47;;;;;;;13.40;7.60;;;;;;;;;;5048261;28;20087;-62
2022/03/12 13:06:14;;;;;;;10.37;6.30;;;;;;;;;;5047696;28;20137;-62
2022/03/12 13:08:46;;;;;;;14.13;9.77;;;;;;;;;;5047771;28;20061;-62
2022/03/12 13:11:32;;;;;;;8.15;5.40;;;;;;;;;;5047900;28;20052;-62
2022/03/12 13:13:59;;;;;;;10.27;5.43;;;;;;;;;;5047896;28;20045;-62
2022/03/12 13:16:26;;;;;;;13.23;7.47;;;;;;;;;;5051447;28;20052;-62
2022/03/12 13:18:52;;;;;;;7.90;5.60;;;;;;;;;;5051529;28;20437;-63
2022/03/12 13:21:27;;;;;;;11.20;6.93;;;;;;;;;;5051435;28;20049;-63
2022/03/12 13:23:53;;;;;;;6.47;5.13;;;;;;;;;;5051497;28;20045;-63
2022/03/12 13:26:19;;;;;;;9.10;5.40;;;;;;;;;;5051161;28;20041;-63
2022/03/12 13:28:49;;;;;;;9.87;6.27;;;;;;;;;;5051266;28;20060;-63
2022/03/12 13:31:16;;;;;;;9.47;5.53;;;;;;;;;;5051342;28;20454;-63
2022/03/12 13:33:43;;;;;;;8.30;5.30;;;;;;;;;;5050881;28;20087;-63
2022/03/12 13:36:22;;;;;;;11.10;6.03;;;;;;;;;;5050926;28;20041;-63
2022/03/12 13:38:49;;;;;;;11.60;5.40;;;;;;;;;;5051107;28;20124;-63
2022/03/12 13:41:16;;;;;;;10.70;5.40;;;;;;;;;;5051431;28;20048;-63
2022/03/12 13:43:42;;;;;;;10.60;5.70;;;;;;;;;;5051038;28;20544;-63
2022/03/12 13:46:08;;;;;;;7.83;5.37;;;;;;;;;;5050862;28;20045;-63
2022/03/12 13:48:34;;;;;;;10.57;5.40;;;;;;;;;;5050915;28;20479;-63
2022/03/12 13:51:01;;;;;;;9.37;5.60;;;;;;;;;;5050575;28;20751;-63
2022/03/12 13:53:28;;;;;;;10.63;5.50;;;;;;;;;;5050736;28;20905;-63
2022/03/12 13:56:02;;;;;;;7.57;5.40;;;;;;;;;;5051114;28;20479;-63
2022/03/12 13:58:30;;;;;;;8.83;5.23;;;;;;;;;;5050590;28;20061;-63
2022/03/12 14:00:58;;;;;;;8.07;5.70;;;;;;;;;;5050757;28;20494;-63
2022/03/12 14:03:25;;;;;;;7.77;4.87;;;;;;;;;;5050541;28;20095;-63
2022/03/12 14:05:51;;;;;;;10.77;5.27;;;;;;;;;;5050412;28;20418;-63
2022/03/12 14:08:20;;;;;;;9.33;5.57;;;;;;;;;;5050618;28;20140;-63
2022/03/12 14:10:47;;;;;;;7.20;4.73;;;;;;;;;;5051078;28;20060;-63
2022/03/12 14:13:16;;;;;;;8.93;6.10;;;;;;;;;;5050276;28;20043;-63
2022/03/12 14:15:42;;;;;;;8.57;5.60;;;;;;;;;;5050586;28;20144;-63
2022/03/12 14:18:09;;;;;;;7.30;5.17;;;;;;;;;;5050844;28;20037;-63
2022/03/12 14:20:35;;;;;;;8.60;6.17;;;;;;;;;;5050054;28;20049;-63
2022/03/12 14:23:02;;;;;;;10.00;5.67;;;;;;;;;;5050322;28;20040;-63
2022/03/12 14:25:34;;;;;;;9.70;6.57;;;;;;;;;;5049641;28;20095;-63
2022/03/12 14:28:00;;;;;;;9.33;5.40;;;;;;;;;;5050496;28;20135;-63
2022/03/12 14:30:26;;;;;;;9.33;5.60;;;;;;;;;;5050123;28;20043;-63
2022/03/12 14:32:52;;;;;;;8.50;5.27;;;;;;;;;;5049459;28;20518;-62
2022/03/12 14:35:20;;;;;;;8.07;4.93;;;;;;;;;;5050005;28;20091;-63